Time;durP1;ratioP1;P1;durP2;ratioP2;P2;SDS_P1;SDS_P2;PMS_P1;PMS_P2;Temp;Humidity;BMP_temperature;BMP_pressure;BME280_temperature;BME280_humidity;BME280_pressure;Samples;Min_cycle;Max_cycle;Signal;HPM_P1;HPM_P2
2021/11/14 00:01:59;;;;;;;221.15;62.92;;;3.70;99.90;;;;;;5041747;28;20021;-77
2021/11/14 00:04:25;;;;;;;444.30;94.95;;;3.60;99.90;;;;;;5040749;28;20159;-79
2021/11/14 00:06:50;;;;;;;271.00;70.65;;;3.50;99.90;;;;;;5035388;28;20578;-77
2021/11/14 00:09:16;;;;;;;319.65;85.32;;;3.30;99.90;;;;;;5034776;28;20513;-78
2021/11/14 00:11:42;;;;;;;445.83;149.75;;;3.30;99.90;;;;;;5032027;28;20115;-77
2021/11/14 00:14:08;;;;;;;244.50;97.53;;;3.20;99.90;;;;;;5033516;28;20025;-77
2021/11/14 00:16:33;;;;;;;301.42;105.55;;;3.10;99.90;;;;;;5034974;28;20025;-77
2021/11/14 00:19:00;;;;;;;417.83;102.47;;;3.10;99.90;;;;;;5036683;28;20529;-76
2021/11/14 00:21:28;;;;;;;667.65;311.88;;;3.10;99.90;;;;;;5036610;28;20061;-77
2021/11/14 00:23:54;;;;;;;442.92;205.73;;;3.00;99.90;;;;;;5035554;28;20100;-76
2021/11/14 00:26:20;;;;;;;279.48;127.05;;;3.00;99.90;;;;;;5036413;28;20375;-76
2021/11/14 00:28:47;;;;;;;640.08;218.07;;;3.10;99.90;;;;;;5036488;28;20060;-77
2021/11/14 00:31:15;;;;;;;386.60;126.57;;;3.10;99.90;;;;;;5036377;28;20057;-77
2021/11/14 00:33:43;;;;;;;516.22;199.43;;;3.00;99.90;;;;;;5035247;28;20452;-76
2021/11/14 00:36:16;;;;;;;341.15;154.50;;;3.00;99.90;;;;;;5035055;28;20052;-77
2021/11/14 00:38:42;;;;;;;350.33;145.15;;;2.90;99.90;;;;;;5035000;28;20452;-78
2021/11/14 00:41:08;;;;;;;359.98;147.27;;;2.90;99.90;;;;;;5035276;28;20041;-77
2021/11/14 00:43:35;;;;;;;176.60;91.78;;;2.90;99.90;;;;;;5034670;28;20045;-77
2021/11/14 00:46:06;;;;;;;187.68;94.32;;;2.90;99.90;;;;;;5036252;28;20025;-77
2021/11/14 00:48:32;;;;;;;165.13;76.88;;;3.00;99.90;;;;;;5034834;28;20033;-76
2021/11/14 00:51:02;;;;;;;145.02;72.75;;;3.10;99.90;;;;;;5036009;28;20060;-76
2021/11/14 00:53:28;;;;;;;97.93;56.92;;;3.10;99.90;;;;;;5036279;28;20078;-76
2021/11/14 00:55:54;;;;;;;125.53;65.20;;;3.20;99.90;;;;;;5040601;28;20059;-77
2021/11/14 00:58:20;;;;;;;112.43;70.07;;;3.20;99.90;;;;;;5045330;28;20027;-78
2021/11/14 01:00:46;;;;;;;104.13;67.55;;;3.20;99.90;;;;;;5038188;28;20079;-77
2021/11/14 01:03:12;;;;;;;157.52;90.50;;;3.20;99.90;;;;;;5034552;28;20475;-77
2021/11/14 01:05:41;;;;;;;255.55;136.50;;;3.20;99.90;;;;;;5036484;28;20092;-77
2021/11/14 01:08:06;;;;;;;465.67;252.88;;;3.20;99.90;;;;;;5034542;28;20065;-76
2021/11/14 01:10:35;;;;;;;353.05;164.82;;;3.10;99.90;;;;;;5034027;28;20136;-78
2021/11/14 01:13:01;;;;;;;395.02;215.57;;;3.10;99.90;;;;;;5035874;28;20398;-76
2021/11/14 01:15:28;;;;;;;205.30;110.68;;;3.00;99.90;;;;;;5035655;28;20177;-75
2021/11/14 01:17:54;;;;;;;172.85;95.13;;;3.00;99.90;;;;;;5034306;28;20049;-76
2021/11/14 01:20:27;;;;;;;194.45;107.88;;;3.00;99.90;;;;;;5034383;28;20025;-77
2021/11/14 01:22:55;;;;;;;358.10;144.77;;;2.90;99.90;;;;;;5035690;28;20025;-75
2021/11/14 01:25:21;;;;;;;158.48;102.32;;;2.80;99.90;;;;;;5034057;28;20116;-76
2021/11/14 01:27:48;;;;;;;169.23;102.55;;;2.80;99.90;;;;;;5035151;28;20052;-76
2021/11/14 01:30:44;;;;;;;102.43;63.03;;;2.80;99.90;;;;;;5035252;28;20036;-76
2021/11/14 01:33:11;;;;;;;;;;;2.80;99.90;;;;;;5033581;28;20123;-77
2021/11/14 01:35:37;;;;;;;182.52;60.55;;;2.80;99.90;;;;;;5035646;28;19999;-77
2021/11/14 01:38:05;;;;;;;95.75;55.05;;;2.70;99.90;;;;;;5035100;28;20078;-77
2021/11/14 01:40:44;;;;;;;99.43;59.67;;;2.60;99.90;;;;;;5035144;28;20025;-77
2021/11/14 01:43:12;;;;;;;111.88;66.22;;;2.60;99.90;;;;;;5033882;28;20069;-77
2021/11/14 01:45:38;;;;;;;105.68;60.53;;;2.50;99.50;;;;;;5035326;28;20025;-77
2021/11/14 01:48:05;;;;;;;224.70;89.82;;;2.40;99.90;;;;;;5034142;28;20025;-77
2021/11/14 01:50:31;;;;;;;96.93;58.10;;;2.30;99.90;;;;;;5036723;28;20025;-75
2021/11/14 01:52:58;;;;;;;104.30;66.25;;;2.30;99.90;;;;;;5044122;28;20041;-77
2021/11/14 01:55:27;;;;;;;93.18;57.80;;;2.20;99.80;;;;;;5038562;28;20087;-76
2021/11/14 01:57:54;;;;;;;94.82;58.88;;;2.10;99.90;;;;;;5035176;28;20021;-76
2021/11/14 02:00:48;;;;;;;99.38;60.85;;;2.20;99.90;;;;;;5033591;28;20068;-76
2021/11/14 02:03:15;;;;;;;105.45;66.47;;;2.20;99.90;;;;;;5019735;28;20086;-76
2021/11/14 02:05:40;;;;;;;102.40;61.05;;;2.20;99.90;;;;;;5034984;28;20109;-76
2021/11/14 02:08:08;;;;;;;114.15;68.03;;;2.20;99.90;;;;;;5033386;28;20436;-76
2021/11/14 02:10:34;;;;;;;118.25;76.82;;;2.20;99.90;;;;;;5033207;28;20498;-76
2021/11/14 02:13:00;;;;;;;113.43;68.10;;;2.20;99.90;;;;;;5034716;28;20036;-78
2021/11/14 02:15:26;;;;;;;116.55;65.57;;;2.20;99.90;;;;;;5034460;28;20028;-77
2021/11/14 02:17:52;;;;;;;108.40;62.15;;;2.30;99.90;;;;;;5034848;28;20021;-76
2021/11/14 02:20:19;;;;;;;115.07;66.10;;;2.30;99.90;;;;;;5032963;28;20087;-77
2021/11/14 02:22:45;;;;;;;112.07;65.85;;;2.40;99.90;;;;;;5034512;28;20022;-77
2021/11/14 02:25:14;;;;;;;95.85;57.15;;;2.40;99.90;;;;;;5034668;28;20021;-77
2021/11/14 02:27:42;;;;;;;105.97;62.63;;;2.40;99.90;;;;;;5034251;28;20021;-77
2021/11/14 02:30:11;;;;;;;111.53;64.10;;;2.40;99.90;;;;;;5016832;28;20053;-76
2021/11/14 02:32:37;;;;;;;97.10;58.00;;;2.40;99.90;;;;;;5014254;28;20022;-77
2021/11/14 02:35:03;;;;;;;94.35;55.10;;;2.40;99.90;;;;;;5014253;28;20045;-76
2021/11/14 02:37:29;;;;;;;103.60;62.00;;;2.50;99.90;;;;;;5013863;28;20152;-77
2021/11/14 02:39:55;;;;;;;90.13;53.90;;;2.50;99.90;;;;;;5029873;28;20117;-76
2021/11/14 02:42:21;;;;;;;90.40;54.17;;;2.40;99.90;;;;;;5014770;28;20407;-77
2021/11/14 02:44:47;;;;;;;111.35;65.65;;;2.40;99.90;;;;;;5015936;28;20057;-77
2021/11/14 02:47:12;;;;;;;115.25;70.85;;;2.40;99.90;;;;;;5024782;28;20396;-77
2021/11/14 02:49:38;;;;;;;99.38;59.55;;;2.50;99.90;;;;;;5020616;28;20033;-77
2021/11/14 02:52:05;;;;;;;91.00;54.17;;;2.50;99.90;;;;;;5015570;28;20054;-77
2021/11/14 02:54:31;;;;;;;87.18;51.55;;;2.50;99.90;;;;;;5014233;28;20105;-76
2021/11/14 02:56:57;;;;;;;90.03;54.67;;;2.50;99.90;;;;;;5012781;28;20479;-76
2021/11/14 02:59:24;;;;;;;96.40;55.70;;;2.50;99.90;;;;;;5014504;28;20105;-76
2021/11/14 03:01:53;;;;;;;98.65;56.80;;;2.50;99.90;;;;;;5012947;28;20025;-75
2021/11/14 03:04:22;;;;;;;97.53;60.35;;;2.50;99.90;;;;;;5030079;28;20037;-77
2021/11/14 03:06:50;;;;;;;97.75;55.67;;;2.50;99.90;;;;;;5014336;28;20113;-77
2021/11/14 03:09:15;;;;;;;94.85;56.85;;;2.50;99.90;;;;;;5029488;28;20026;-78
2021/11/14 03:11:41;;;;;;;104.00;62.30;;;2.60;99.90;;;;;;5014239;28;20054;-78
2021/11/14 03:14:07;;;;;;;144.40;84.35;;;2.60;99.90;;;;;;5014198;28;20101;-77
2021/11/14 03:16:34;;;;;;;114.03;66.57;;;2.70;99.90;;;;;;5014053;28;20074;-77
2021/11/14 03:19:01;;;;;;;129.82;73.60;;;2.70;99.90;;;;;;5013729;28;20037;-77
2021/11/14 03:21:27;;;;;;;119.55;68.40;;;2.70;99.90;;;;;;5013961;28;20018;-77
2021/11/14 03:23:54;;;;;;;128.55;70.88;;;2.70;99.90;;;;;;5013822;28;20022;-77
2021/11/14 03:26:20;;;;;;;120.25;67.95;;;2.80;99.90;;;;;;5012481;28;20116;-78
2021/11/14 03:28:46;;;;;;;120.90;69.45;;;2.80;99.90;;;;;;5012370;28;20029;-76
2021/11/14 03:31:13;;;;;;;130.43;80.40;;;2.80;99.90;;;;;;5013999;28;20033;-76
2021/11/14 03:33:38;;;;;;;136.30;79.15;;;2.90;99.90;;;;;;5013796;28;20076;-76
2021/11/14 03:36:10;;;;;;;135.73;77.80;;;2.90;99.90;;;;;;5013623;28;20030;-75
2021/11/14 03:38:45;;;;;;;132.40;78.82;;;2.90;99.90;;;;;;5014120;28;20092;-76
2021/11/14 03:41:16;;;;;;;115.95;70.60;;;3.00;99.90;;;;;;5020085;28;20022;-77
2021/11/14 03:43:43;;;;;;;108.18;69.10;;;3.00;99.90;;;;;;5021530;28;20041;-76
2021/11/14 03:46:09;;;;;;;110.60;70.20;;;3.00;99.90;;;;;;5017002;28;20080;-78
2021/11/14 03:48:39;;;;;;;77.35;45.08;;;3.00;99.90;;;;;;5029010;28;20030;-77
2021/11/14 03:51:05;;;;;;;75.57;46.95;;;3.00;99.90;;;;;;5017218;28;20025;-77
2021/11/14 03:53:31;;;;;;;97.70;59.95;;;2.90;99.90;;;;;;5017439;28;20494;-76
2021/11/14 03:55:57;;;;;;;116.18;71.38;;;3.00;99.90;;;;;;5017343;28;20022;-77
2021/11/14 03:58:23;;;;;;;100.93;62.67;;;3.00;99.90;;;;;;5017671;28;20364;-77
2021/11/14 04:00:54;;;;;;;97.88;59.47;;;2.90;99.90;;;;;;5017187;28;20030;-77
2021/11/14 04:03:20;;;;;;;80.93;50.80;;;2.90;99.90;;;;;;5032055;28;20084;-76
2021/11/14 04:05:46;;;;;;;77.75;48.13;;;2.90;99.90;;;;;;5016873;28;20026;-76
2021/11/14 04:08:15;;;;;;;79.28;48.03;;;2.90;99.90;;;;;;5015633;28;20037;-76
2021/11/14 04:10:42;;;;;;;83.22;50.22;;;2.90;99.90;;;;;;5016560;28;20037;-75
2021/11/14 04:13:09;;;;;;;139.23;80.18;;;2.90;99.90;;;;;;5016841;28;20030;-77
2021/11/14 04:15:35;;;;;;;160.13;95.38;;;2.90;99.90;;;;;;5016911;28;20026;-78
2021/11/14 04:18:01;;;;;;;184.25;109.38;;;2.80;99.90;;;;;;5016962;28;20018;-76
2021/11/14 04:20:29;;;;;;;168.77;101.30;;;2.80;99.90;;;;;;5016933;28;20068;-77
2021/11/14 04:22:56;;;;;;;110.47;64.68;;;2.80;99.90;;;;;;5016734;28;20029;-77
2021/11/14 04:25:23;;;;;;;104.05;59.00;;;2.80;99.90;;;;;;5031583;28;20416;-77
2021/11/14 04:27:48;;;;;;;112.30;68.53;;;2.80;99.90;;;;;;5016711;28;20057;-75
2021/11/14 04:30:15;;;;;;;128.80;72.13;;;2.80;99.90;;;;;;5017111;28;20432;-77
2021/11/14 04:32:41;;;;;;;123.13;69.72;;;2.80;99.90;;;;;;5017718;28;20026;-77
2021/11/14 04:35:07;;;;;;;149.18;82.45;;;2.90;99.90;;;;;;5036315;28;20026;-76
2021/11/14 04:37:34;;;;;;;146.48;90.82;;;2.90;99.90;;;;;;5025293;28;20033;-76
2021/11/14 04:40:00;;;;;;;147.60;94.72;;;2.90;99.90;;;;;;5019570;28;20480;-76
2021/11/14 04:42:26;;;;;;;120.07;67.43;;;2.90;99.90;;;;;;5017102;28;20053;-76
2021/11/14 04:44:51;;;;;;;134.57;75.15;;;3.00;99.90;;;;;;5015637;28;20084;-76
2021/11/14 04:47:17;;;;;;;134.60;78.78;;;3.00;99.90;;;;;;5016282;28;20025;-77
2021/11/14 04:49:43;;;;;;;125.07;72.25;;;3.10;99.90;;;;;;5031651;28;20033;-76
2021/11/14 04:52:10;;;;;;;83.15;48.38;;;3.10;99.90;;;;;;5016848;28;20026;-76
2021/11/14 04:54:36;;;;;;;72.57;42.85;;;3.10;99.90;;;;;;5015438;28;20029;-77
2021/11/14 04:57:02;;;;;;;97.90;55.72;;;3.10;99.90;;;;;;5016619;28;20022;-77
2021/11/14 04:59:28;;;;;;;68.28;43.58;;;3.10;99.90;;;;;;5016300;28;20060;-76
2021/11/14 05:01:54;;;;;;;210.57;86.47;;;3.10;99.90;;;;;;5015391;28;20049;-76
2021/11/14 05:04:19;;;;;;;493.00;191.27;;;3.10;99.90;;;;;;5015623;28;20436;-77
2021/11/14 05:06:45;;;;;;;298.88;109.57;;;3.10;99.90;;;;;;5014529;28;20026;-78
2021/11/14 05:09:11;;;;;;;138.63;63.55;;;3.10;99.90;;;;;;5015679;28;20064;-76
2021/11/14 05:11:37;;;;;;;85.55;45.80;;;3.10;99.90;;;;;;5015485;28;20037;-77
2021/11/14 05:14:03;;;;;;;78.82;44.30;;;3.10;99.90;;;;;;5015723;28;20050;-76
2021/11/14 05:16:29;;;;;;;79.63;46.72;;;3.20;99.90;;;;;;5015665;28;20046;-76
2021/11/14 05:18:55;;;;;;;98.45;58.85;;;3.20;99.90;;;;;;5014402;28;20021;-76
2021/11/14 05:21:21;;;;;;;99.63;64.35;;;3.20;99.90;;;;;;5015522;28;20021;-77
2021/11/14 05:23:47;;;;;;;106.55;66.50;;;3.30;99.90;;;;;;5014416;28;20022;-77
2021/11/14 05:26:13;;;;;;;100.13;58.08;;;3.40;99.90;;;;;;5015722;28;20071;-77
2021/11/14 05:28:39;;;;;;;92.75;60.28;;;3.50;99.90;;;;;;5016304;28;20014;-76
2021/11/14 05:31:05;;;;;;;83.90;50.13;;;3.60;99.90;;;;;;5025681;28;20360;-78
2021/11/14 05:33:31;;;;;;;74.90;46.78;;;3.80;99.90;;;;;;5024038;28;20038;-78
2021/11/14 05:35:57;;;;;;;68.35;43.33;;;4.00;99.90;;;;;;5017298;28;20096;-78
2021/11/14 05:38:23;;;;;;;80.95;48.75;;;4.10;99.90;;;;;;5016099;28;20062;-79
2021/11/14 05:40:48;;;;;;;87.68;55.97;;;4.20;99.90;;;;;;5014813;28;20064;-79
2021/11/14 05:43:14;;;;;;;72.55;44.28;;;4.30;99.90;;;;;;5031062;28;20077;-76
2021/11/14 05:45:41;;;;;;;74.90;44.08;;;4.40;99.90;;;;;;5015611;28;20475;-79
2021/11/14 05:48:07;;;;;;;63.10;38.20;;;4.60;99.10;;;;;;5015387;28;20060;-80
2021/11/14 05:50:33;;;;;;;62.55;38.53;;;4.80;97.60;;;;;;5013722;28;20057;-78
2021/11/14 05:52:59;;;;;;;61.70;37.88;;;4.90;96.50;;;;;;5014259;28;20093;-78
2021/11/14 05:55:25;;;;;;;66.20;39.95;;;5.00;95.80;;;;;;5015353;28;20105;-76
2021/11/14 05:58:00;;;;;;;64.32;38.83;;;5.10;94.90;;;;;;5015800;28;20022;-77
2021/11/14 06:00:42;;;;;;;65.97;39.90;;;5.20;93.60;;;;;;5015340;28;20112;-76
2021/11/14 06:03:18;;;;;;;65.88;41.80;;;5.20;93.00;;;;;;5015102;28;20080;-78
2021/11/14 06:05:45;;;;;;;76.82;44.72;;;5.20;92.70;;;;;;5016086;28;20025;-78
2021/11/14 06:08:11;;;;;;;70.70;42.47;;;5.30;92.20;;;;;;5031135;28;20456;-78
2021/11/14 06:10:37;;;;;;;72.00;45.13;;;5.40;91.80;;;;;;5014310;28;20022;-78
2021/11/14 06:13:03;;;;;;;66.97;43.65;;;5.50;91.50;;;;;;5014468;28;20037;-78
2021/11/14 06:15:32;;;;;;;73.30;42.42;;;5.60;91.10;;;;;;5013795;28;20448;-78
2021/11/14 06:17:57;;;;;;;69.53;44.33;;;5.80;90.90;;;;;;5015110;28;20109;-77
2021/11/14 06:20:23;;;;;;;70.00;43.88;;;5.90;90.50;;;;;;5015207;28;20144;-78
2021/11/14 06:22:49;;;;;;;70.95;43.72;;;6.10;89.80;;;;;;5015249;28;20026;-77
2021/11/14 06:25:17;;;;;;;69.47;42.78;;;6.30;88.60;;;;;;5018974;28;20087;-77
2021/11/14 06:27:43;;;;;;;64.03;42.38;;;6.60;88.00;;;;;;5023657;28;20021;-75
2021/11/14 06:30:12;;;;;;;80.28;50.33;;;6.80;87.00;;;;;;5034900;28;20030;-77
2021/11/14 06:32:38;;;;;;;75.90;46.55;;;7.20;86.10;;;;;;5030166;28;20104;-78
2021/11/14 06:35:04;;;;;;;70.88;43.72;;;7.60;84.60;;;;;;5029702;28;20025;-77
2021/11/14 06:37:30;;;;;;;74.80;45.03;;;8.00;83.00;;;;;;5029934;28;20029;-77
2021/11/14 06:39:57;;;;;;;73.40;42.38;;;8.30;81.30;;;;;;5014479;28;20095;-78
2021/11/14 06:42:23;;;;;;;65.65;41.42;;;8.70;79.40;;;;;;5014474;28;20026;-77
2021/11/14 06:44:48;;;;;;;72.13;42.08;;;9.00;78.00;;;;;;5014405;28;20348;-77
2021/11/14 06:47:15;;;;;;;80.75;48.30;;;9.30;76.80;;;;;;5029454;28;20022;-78
2021/11/14 06:49:41;;;;;;;77.72;48.85;;;9.60;75.40;;;;;;5012946;28;20506;-76
2021/11/14 06:52:09;;;;;;;88.88;54.20;;;9.80;74.40;;;;;;5029195;28;20029;-77
2021/11/14 06:54:35;;;;;;;82.15;50.40;;;9.90;73.70;;;;;;5013243;28;20029;-78
2021/11/14 06:57:01;;;;;;;64.63;42.83;;;10.00;73.40;;;;;;5014129;28;20025;-77
2021/11/14 06:59:27;;;;;;;58.95;38.88;;;10.10;73.10;;;;;;5013682;28;20513;-78
2021/11/14 07:01:53;;;;;;;58.13;38.90;;;10.40;72.70;;;;;;5012795;28;20018;-79
2021/11/14 07:04:18;;;;;;;53.80;37.58;;;10.80;71.80;;;;;;5013923;28;20451;-78
2021/11/14 07:06:45;;;;;;;55.50;37.47;;;11.10;70.80;;;;;;5013799;28;20044;-78
2021/11/14 07:09:11;;;;;;;57.03;39.53;;;11.50;69.90;;;;;;5012482;28;20033;-77
2021/11/14 07:11:39;;;;;;;53.45;36.15;;;11.70;68.90;;;;;;5013787;28;20030;-78
2021/11/14 07:14:05;;;;;;;51.50;33.35;;;11.90;68.80;;;;;;5013785;28;20395;-78
2021/11/14 07:16:31;;;;;;;46.00;30.83;;;12.20;67.80;;;;;;5012950;28;20418;-78
2021/11/14 07:18:57;;;;;;;46.50;31.60;;;12.40;66.60;;;;;;5033683;28;20507;-78
2021/11/14 07:21:24;;;;;;;44.05;29.85;;;12.60;65.80;;;;;;5022615;28;20029;-78
2021/11/14 07:23:50;;;;;;;46.03;29.85;;;12.80;65.30;;;;;;5021057;28;20026;-79
2021/11/14 07:26:17;;;;;;;44.35;29.25;;;12.90;64.80;;;;;;5021792;28;20086;-78
2021/11/14 07:28:43;;;;;;;43.33;29.77;;;13.00;64.50;;;;;;5037298;28;20029;-77
2021/11/14 07:31:09;;;;;;;42.92;28.63;;;13.20;64.00;;;;;;5017328;28;20026;-78
2021/11/14 07:33:34;;;;;;;40.25;27.25;;;13.40;63.60;;;;;;5033804;28;20069;-79
2021/11/14 07:36:00;;;;;;;37.92;26.67;;;13.60;63.00;;;;;;5017840;28;20022;-79
2021/11/14 07:38:27;;;;;;;38.22;26.67;;;13.70;62.30;;;;;;5033197;28;20025;-77
2021/11/14 07:40:53;;;;;;;37.42;26.10;;;13.90;61.90;;;;;;5033133;28;20109;-78
2021/11/14 07:43:18;;;;;;;37.55;25.83;;;13.90;61.10;;;;;;5032488;28;20045;-80
2021/11/14 07:45:44;;;;;;;36.50;25.15;;;13.90;60.90;;;;;;5033471;28;20045;-78
2021/11/14 07:48:10;;;;;;;34.63;25.80;;;14.10;60.80;;;;;;5017742;28;20026;-77
2021/11/14 07:50:36;;;;;;;45.80;28.70;;;14.00;60.20;;;;;;5016301;28;20030;-79
2021/11/14 07:53:03;;;;;;;47.00;30.75;;;13.90;60.30;;;;;;5016366;28;20361;-78
2021/11/14 07:55:30;;;;;;;49.50;32.10;;;13.90;60.90;;;;;;5016234;28;20022;-78
2021/11/14 07:57:58;;;;;;;43.75;29.90;;;14.00;61.10;;;;;;5018002;28;20026;-78
2021/11/14 08:00:24;;;;;;;38.33;29.10;;;14.20;60.60;;;;;;5016652;28;20032;-78
2021/11/14 08:02:53;;;;;;;50.47;34.35;;;14.50;60.00;;;;;;5018031;28;20465;-79
2021/11/14 08:05:20;;;;;;;47.55;33.22;;;14.60;59.80;;;;;;5017482;28;20354;-79
2021/11/14 08:07:49;;;;;;;45.70;32.85;;;14.60;59.30;;;;;;5017450;28;20057;-79
2021/11/14 08:10:17;;;;;;;43.58;28.65;;;14.40;59.40;;;;;;5016234;28;20026;-80
2021/11/14 08:12:43;;;;;;;41.50;28.85;;;14.40;59.80;;;;;;5023877;28;20095;-78
2021/11/14 08:15:10;;;;;;;43.35;29.50;;;14.40;59.80;;;;;;5024885;28;20026;-78
2021/11/14 08:17:36;;;;;;;47.20;31.27;;;14.50;59.60;;;;;;5025353;28;20033;-79
2021/11/14 08:20:07;;;;;;;57.95;35.13;;;14.40;59.30;;;;;;5021233;28;20372;-77
2021/11/14 08:22:33;;;;;;;54.45;35.63;;;14.30;59.80;;;;;;5019708;28;20026;-77
2021/11/14 08:25:01;;;;;;;55.85;35.65;;;14.40;60.00;;;;;;5016390;28;20030;-76
2021/11/14 08:27:28;;;;;;;46.67;33.42;;;14.50;59.50;;;;;;5016741;28;20033;-78
2021/11/14 08:29:54;;;;;;;54.30;35.72;;;14.70;59.10;;;;;;5017550;28;20407;-78
2021/11/14 08:32:25;;;;;;;51.67;34.65;;;14.90;58.70;;;;;;5016768;28;20022;-78
2021/11/14 08:34:50;;;;;;;52.47;35.83;;;15.10;58.00;;;;;;5016453;28;20029;-80
2021/11/14 08:37:16;;;;;;;52.08;37.25;;;15.20;57.60;;;;;;5015409;28;20026;-80
2021/11/14 08:39:42;;;;;;;53.72;37.42;;;15.40;57.20;;;;;;5017435;28;20387;-79
2021/11/14 08:42:08;;;;;;;49.15;34.13;;;15.60;57.00;;;;;;5017361;28;20473;-78
2021/11/14 08:44:34;;;;;;;44.05;32.47;;;15.90;56.40;;;;;;5016542;28;20042;-77
2021/11/14 08:47:00;;;;;;;51.67;35.63;;;16.10;55.90;;;;;;5015490;28;20046;-76
2021/11/14 08:49:26;;;;;;;46.28;33.42;;;16.20;55.90;;;;;;5015550;28;20104;-78
2021/11/14 08:51:52;;;;;;;48.72;33.67;;;16.30;55.10;;;;;;5016359;28;20022;-79
2021/11/14 08:54:19;;;;;;;49.38;34.60;;;16.50;54.60;;;;;;5017384;28;20018;-77
2021/11/14 08:56:45;;;;;;;52.42;35.53;;;16.50;54.30;;;;;;5017458;28;20034;-78
2021/11/14 08:59:12;;;;;;;44.45;32.45;;;16.60;54.50;;;;;;5016391;28;20079;-79
2021/11/14 09:01:39;;;;;;;47.30;33.08;;;17.00;54.10;;;;;;5031417;28;20026;-77
2021/11/14 09:04:07;;;;;;;47.10;33.50;;;17.10;53.60;;;;;;5016557;28;20022;-79
2021/11/14 09:06:34;;;;;;;42.45;31.27;;;17.10;53.30;;;;;;5019951;28;20028;-77
2021/11/14 09:09:00;;;;;;;42.80;32.45;;;17.20;52.80;;;;;;5021246;28;20068;-78
2021/11/14 09:11:26;;;;;;;48.05;33.90;;;17.20;52.60;;;;;;5042674;28;20026;-78
2021/11/14 09:13:52;;;;;;;49.28;34.42;;;17.40;52.20;;;;;;5048496;28;20026;-78
2021/11/14 09:16:18;;;;;;;48.00;37.25;;;17.60;52.00;;;;;;5030425;28;20360;-78
2021/11/14 09:18:45;;;;;;;46.33;34.53;;;17.70;52.10;;;;;;5017420;28;20033;-79
2021/11/14 09:21:12;;;;;;;45.20;32.28;;;17.80;52.40;;;;;;5017176;28;20029;-79
2021/11/14 09:23:38;;;;;;;46.65;34.88;;;17.70;51.70;;;;;;5032368;28;20104;-78
2021/11/14 09:26:09;;;;;;;44.33;33.15;;;17.70;51.70;;;;;;5049290;28;20404;-77
2021/11/14 09:28:37;;;;;;;40.08;29.75;;;17.80;51.40;;;;;;5016266;28;20080;-78
2021/11/14 09:31:03;;;;;;;44.58;32.33;;;17.90;51.30;;;;;;5015724;28;20026;-79
2021/11/14 09:33:30;;;;;;;44.17;30.13;;;17.90;51.30;;;;;;5014768;28;20022;-78
2021/11/14 09:35:56;;;;;;;38.97;27.80;;;18.20;52.00;;;;;;5030967;28;20030;-79
2021/11/14 09:38:22;;;;;;;38.35;29.83;;;18.20;51.10;;;;;;5016080;28;20072;-77
2021/11/14 09:40:48;;;;;;;36.35;26.30;;;18.30;51.60;;;;;;5014504;28;20033;-77
2021/11/14 09:43:15;;;;;;;34.17;25.45;;;18.40;50.90;;;;;;5014110;28;20056;-79
2021/11/14 09:45:41;;;;;;;34.22;24.67;;;18.50;50.80;;;;;;5015708;28;20026;-77
2021/11/14 09:48:07;;;;;;;34.97;24.88;;;18.70;50.30;;;;;;5015555;28;20018;-78
2021/11/14 09:50:39;;;;;;;31.17;22.50;;;18.70;50.10;;;;;;5015294;28;20061;-79
2021/11/14 09:53:08;;;;;;;37.10;24.92;;;18.50;50.20;;;;;;5014301;28;20042;-80
2021/11/14 09:55:35;;;;;;;34.33;24.70;;;18.30;50.40;;;;;;5030301;28;20061;-79
2021/11/14 09:58:04;;;;;;;34.58;23.75;;;18.10;50.50;;;;;;5015259;28;20472;-79
2021/11/14 10:00:33;;;;;;;34.85;22.52;;;17.90;50.80;;;;;;5030481;28;20021;-78
2021/11/14 10:02:59;;;;;;;27.90;20.52;;;17.70;51.30;;;;;;5016252;28;20028;-81
2021/11/14 10:05:25;;;;;;;35.28;22.67;;;17.70;51.80;;;;;;5039394;28;20034;-78
2021/11/14 10:07:59;;;;;;;34.22;23.02;;;17.70;51.70;;;;;;5026015;28;20333;-78
2021/11/14 10:10:30;;;;;;;38.40;24.10;;;17.70;51.70;;;;;;5017026;28;20033;-79
2021/11/14 10:12:57;;;;;;;30.40;22.05;;;17.80;51.60;;;;;;5030788;28;20126;-78
2021/11/14 10:15:25;;;;;;;33.88;23.90;;;17.80;51.10;;;;;;5015530;28;20022;-77
2021/11/14 10:17:55;;;;;;;34.25;23.65;;;17.60;51.30;;;;;;5013894;28;20376;-78
2021/11/14 10:20:23;;;;;;;34.50;23.80;;;17.30;51.60;;;;;;5030591;28;20475;-79
2021/11/14 10:22:52;;;;;;;35.05;24.13;;;17.30;52.00;;;;;;5030029;28;20073;-78
2021/11/14 10:25:19;;;;;;;30.38;21.83;;;17.20;51.90;;;;;;5014978;28;20341;-79
2021/11/14 10:27:57;;;;;;;33.70;23.13;;;17.00;52.10;;;;;;5014429;28;20351;-79
2021/11/14 10:30:26;;;;;;;33.05;22.80;;;16.80;52.50;;;;;;5013959;28;20464;-78
2021/11/14 10:32:57;;;;;;;33.03;22.80;;;16.70;52.70;;;;;;5014055;28;20029;-78
2021/11/14 10:35:27;;;;;;;33.40;23.15;;;16.60;53.10;;;;;;5013377;28;20538;-78
2021/11/14 10:38:00;;;;;;;42.50;27.08;;;16.60;53.40;;;;;;5014540;28;20028;-77
2021/11/14 10:40:29;;;;;;;40.80;27.70;;;16.60;53.70;;;;;;5013051;28;20026;-78
2021/11/14 10:42:58;;;;;;;34.33;24.40;;;16.60;53.80;;;;;;5029958;28;20045;-76
2021/11/14 10:45:25;;;;;;;45.55;33.03;;;16.30;53.80;;;;;;5014438;28;20037;-78
2021/11/14 10:48:00;;;;;;;37.83;27.10;;;15.90;54.80;;;;;;5014746;28;20025;-77
2021/11/14 10:50:32;;;;;;;32.85;23.33;;;15.60;55.50;;;;;;5014265;28;20033;-76
2021/11/14 10:53:01;;;;;;;33.55;23.30;;;15.50;55.80;;;;;;5030455;28;20421;-77
2021/11/14 10:55:31;;;;;;;33.50;24.30;;;15.50;56.10;;;;;;5030307;28;20095;-80
2021/11/14 10:57:58;;;;;;;33.83;23.55;;;15.50;56.30;;;;;;5014035;28;20026;-78
2021/11/14 11:00:27;;;;;;;38.63;23.23;;;15.50;56.50;;;;;;5015914;28;20026;-78
2021/11/14 11:02:53;;;;;;;36.40;23.55;;;15.50;56.40;;;;;;5021890;28;20022;-77
2021/11/14 11:05:24;;;;;;;41.35;29.42;;;15.50;56.70;;;;;;5018676;28;20133;-79
2021/11/14 11:08:08;;;;;;;36.88;24.65;;;15.60;56.70;;;;;;5015556;28;20022;-78
2021/11/14 11:10:46;;;;;;;41.10;27.05;;;15.60;56.30;;;;;;5014475;28;20030;-77
2021/11/14 11:13:29;;;;;;;39.03;26.38;;;15.60;56.30;;;;;;5014726;28;20026;-77
2021/11/14 11:16:00;;;;;;;35.83;23.85;;;15.50;56.60;;;;;;5014090;28;20334;-78
2021/11/14 11:18:29;;;;;;;37.72;24.42;;;15.50;56.70;;;;;;5013982;28;20026;-77
2021/11/14 11:20:58;;;;;;;34.90;24.35;;;15.60;56.60;;;;;;5013254;28;20216;-77
2021/11/14 11:23:25;;;;;;;36.53;24.60;;;15.60;56.60;;;;;;5014132;28;20025;-78
2021/11/14 11:25:57;;;;;;;38.65;25.73;;;15.70;56.60;;;;;;5014327;28;20053;-78
2021/11/14 11:28:30;;;;;;;38.85;25.13;;;15.70;56.90;;;;;;5014140;28;20030;-78
2021/11/14 11:31:02;;;;;;;40.47;26.38;;;15.80;56.70;;;;;;5013030;28;20026;-80
2021/11/14 11:33:33;;;;;;;41.17;27.33;;;15.80;56.50;;;;;;5029584;28;20121;-78
2021/11/14 11:36:00;;;;;;;37.75;23.95;;;15.90;56.60;;;;;;5013953;28;20018;-78
2021/11/14 11:38:28;;;;;;;34.25;23.92;;;16.10;56.30;;;;;;5013695;28;20101;-80
2021/11/14 11:40:55;;;;;;;35.80;23.08;;;16.40;56.00;;;;;;5014343;28;20087;-77
2021/11/14 11:43:21;;;;;;;35.30;24.52;;;16.50;55.50;;;;;;5013554;28;20045;-78
2021/11/14 11:45:49;;;;;;;35.22;25.05;;;16.60;55.20;;;;;;5013555;28;20018;-78
2021/11/14 11:48:26;;;;;;;55.53;37.22;;;16.60;55.20;;;;;;5012867;28;20021;-78
2021/11/14 11:51:04;;;;;;;44.17;29.02;;;16.60;54.90;;;;;;5029102;28;20022;-78
2021/11/14 11:53:30;;;;;;;31.38;21.77;;;16.40;55.40;;;;;;5012915;28;20463;-78
2021/11/14 11:56:11;;;;;;;36.83;23.85;;;16.30;55.50;;;;;;5013655;28;20022;-78
2021/11/14 11:58:48;;;;;;;39.30;25.67;;;16.00;55.90;;;;;;5037780;28;20037;-79
2021/11/14 12:01:19;;;;;;;37.67;26.52;;;15.60;56.50;;;;;;5020256;28;20506;-77
2021/11/14 12:03:45;;;;;;;47.97;36.00;;;15.20;57.30;;;;;;5014668;28;20026;-78
2021/11/14 12:06:24;;;;;;;46.92;37.65;;;15.00;58.20;;;;;;5014261;28;20026;-78
2021/11/14 12:08:57;;;;;;;50.33;38.40;;;14.90;58.60;;;;;;5029509;28;20083;-76
2021/11/14 12:11:37;;;;;;;41.33;27.30;;;14.90;58.80;;;;;;5016642;28;20025;-79
2021/11/14 12:14:14;;;;;;;44.17;28.92;;;14.60;59.10;;;;;;5017031;28;20364;-77
2021/11/14 12:16:43;;;;;;;40.28;27.60;;;14.30;60.00;;;;;;5017308;28;20026;-77
2021/11/14 12:19:23;;;;;;;41.78;29.23;;;14.20;60.20;;;;;;5015797;28;20022;-78
2021/11/14 12:22:04;;;;;;;41.33;28.33;;;13.80;60.70;;;;;;5016946;28;20018;-78
2021/11/14 12:24:46;;;;;;;48.03;32.83;;;13.40;61.80;;;;;;5016877;28;20029;-79
2021/11/14 12:27:44;;;;;;;49.38;34.38;;;13.20;62.50;;;;;;5016865;28;20025;-77
2021/11/14 12:30:15;;;;;;;41.10;28.67;;;12.80;63.20;;;;;;5031637;28;20038;-77
2021/11/14 12:32:50;;;;;;;36.85;25.65;;;12.50;63.80;;;;;;5016453;28;20018;-78